RESULTATS »

INSCRITS PRESENTATS ACABEN RETIRATS DESQUALIFICATS DIST. TRAM 1 DIST. TRAM 2 DIST. TRAM 3 TEMP. EXT TEMP. AIGUA
300 485 475 7 3 750 20 5 16 0

CLASSIFICACIÓ

MASCULÍ FEMENÍ CATEGORIES CLUBS (MASCULINA) CLUBS (FEMENINA) INDIVIDUALS GRUPS D'EDAT

LLOCDORSALNOMCLUBCAT.T.META| P.Tram 1 || P.Tram 2 |Km/hTEMPS| P.Tram 3 |PARC_1PARC_2
1 30LAURA GOMEZ RAMONC.N. SABADELLSUB23F01:03:249800:18:2015300:35:0034.2900:53:2011000:10:040:00:000:00:00
2 1953TXELL JARQUE PUJALSABSOLUT SPORTJNF01:05:438200:17:5827200:38:0331.5400:56:016600:09:420:00:000:00:00
3 101ANDREA LOPEZ RAMENTOLTRIACTIV LANZAROTECDF01:07:3115200:19:1626300:37:5531.6500:57:1113700:10:200:00:000:00:00
4 5080PAULA BATLLE I PLANTADACERDANYOLA CHJNF01:07:5534100:22:1319300:35:5033.4900:58:039000:09:520:00:000:00:00
5 5027MARTA ROMANCE OMSC.N. SABADELLCDF01:08:2120900:20:0124400:37:3032.0000:57:3119900:10:500:00:000:00:00
6 5171CRISTINA CLERIES VILAMAJOCLUB TRIATLO BLANESABF01:09:5927700:20:5823700:37:2132.1300:58:1929400:11:400:00:000:00:00
7 6033MARIA JOSÉ MUÑOZ SANTAMANINDEPENDENTABF01:10:2930400:21:3526500:37:5631.6300:59:3121000:10:580:00:000:00:00
8 5154EVA LAMELA IZQUIERDOTG TRIATLO SITGESV1F01:10:5227600:20:5729800:38:4730.9400:59:4423500:11:080:00:000:00:00
9 3553LAIA MARTIN MAGDALENAGAVA TRIATLOSUB23F01:11:0127000:20:5330900:39:0130.7600:59:5422800:11:070:00:000:00:00
10 6057LAURA MERCEDES LUETICH FCAMBRILS CLUB TRIATLOV2F01:11:0530600:21:3526900:38:0031.5800:59:3527200:11:300:00:000:00:00
11 1832CARLA PLAYA CAVALLEC.N. SABADELLABF01:11:3421000:20:0235200:40:3229.6101:00:3421400:11:000:00:000:00:00
12 4094MYRIAM DE LAFFORESTCLUB NATACIO SITGESV1F01:11:5626600:20:4732200:39:3330.3401:00:2028800:11:360:00:000:00:00
13 3576PAULA LOPEZ CASTILLOPRAT TRIATLO 1994SUB23F01:12:5327100:20:5335300:40:3329.5901:01:2626800:11:270:00:000:00:00
14 5194ANNA YMBERN JIMENEZCLUB VGABF01:13:0935500:22:2730700:38:5830.8001:01:2530100:11:440:00:000:00:00
15 5093ISA GAVINA TROYTIÑO PÉREZCLUB TRITRAININGABF01:13:2533000:21:5232500:39:4530.1901:01:3730700:11:480:00:000:00:00
16 3568MAITE MARZO GOMEZCLUB ESPORTIU CUBE MANRESV1F01:13:3034700:22:1831200:39:0730.6801:01:2532800:12:050:00:000:00:00
17 1902Mª ANGELS MARZO GOMEZCLUB NATACIO SITGESV1F01:13:3038400:23:0727300:38:0531.5101:01:1234600:12:180:00:000:00:00
18 6215SUSANA MARTINEZ SANZCLUB NATACIO SITGESABF01:13:3127800:20:5836500:40:5829.2901:01:5628600:11:350:00:000:00:00
19 5131NEUS PARDO SANCHEZC.E. PENEDES COSTA DAURADABF01:13:4035200:22:2630800:39:0030.7701:01:2633800:12:140:00:000:00:00
20 6059DOLORS HERNANDEZ GARCIACERRR IGUALADAV1F01:13:4136600:22:4030200:38:5230.8701:01:3233400:12:090:00:000:00:00
21 3582MARTA MARIMON CASTELLTORTCERRR IGUALADAABF01:13:5432800:21:4932900:39:4930.1401:01:3834400:12:160:00:000:00:00
22 6068MONICA MINGUET ADROHERTG TRIATLO SITGESV1F01:13:5435300:22:2631500:39:1330.6001:01:3934100:12:150:00:000:00:00
23 27ÈLIA IBARRA CAZORLAC.A. IGUALADACDF01:14:0725400:20:3834100:40:1229.8501:00:5040800:13:170:00:000:00:00
24 1959VERÓNICA ÁVILA LAGOCLUB NATACIO SITGESABF01:14:1638000:23:0130100:38:5030.9001:01:5135400:12:250:00:000:00:00
25 6055AMPARO MUÑOZ SANTAMANSCAMBRILS CLUB TRIATLOABF01:14:2230700:21:3636100:40:4629.4401:02:2232300:12:000:00:000:00:00
26 5016BRITTA HENSELERCLUB TRIATLÓ LLEIDA V1F01:15:1539600:23:2827700:38:1031.4401:01:3843000:13:370:00:000:00:00
27 1970NURI LOZADA ESPÍCLUB NATACIO SITGESV1F01:15:2337800:23:0133100:39:5630.0501:02:5735600:12:260:00:000:00:00
28 6031ROCIO DELGADO GARRIDOVILADECANS TRIATLOABF01:15:3430800:21:3638200:41:5128.6701:03:2733000:12:070:00:000:00:00
29 3584ASSUMPTA CASTELLTORT AMORCERRR IGUALADAV2F01:15:3731000:21:3639300:42:3028.2401:04:0627600:11:310:00:000:00:00
30 6093PATRICIA PÉREZ NAVARROTG TRIATLO SITGESJNF01:15:4732500:21:4738100:41:5028.6901:03:3733500:12:100:00:000:00:00
31 4095EMANUELA VENTURELLIBARCELONA DRAGONS TRIATHLABF01:15:4837400:22:5933500:39:5930.0101:02:5838200:12:500:00:000:00:00
32 5021ANNA RIART MIQUELCAMBRILS CLUB TRIATLOABF01:15:4834800:22:2336600:40:5929.2801:03:2235700:12:260:00:000:00:00
33 6035IRENE PEREZ TORRESINDEPENDENTCDF01:15:5235800:22:3036800:41:0929.1601:03:3933700:12:130:00:000:00:00
34 4093EVA PEREZ DEL RIOCLUB NATACIO SITGESABF01:16:0930500:21:3539000:42:2628.2801:04:0133100:12:080:00:000:00:00
35 1878PAULA MARTIN CASTELLSAGUÉPRAT TRIATLO 1994JNF01:16:1831100:21:3841000:43:1427.7601:04:5226600:11:260:00:000:00:00
36 6084NÚRIA ANDUCAS SANTIAGOI3 TRIATHLONABF01:16:2139700:23:2935900:40:4329.4701:04:1233300:12:090:00:000:00:00
37 50YAZMIN DEL MAR SANCHIS BOC.N. TERRASSA-CICLES MOREJNF01:16:2738200:23:0236400:40:5729.3001:03:5936000:12:280:00:000:00:00
38 5104DESIREE VIDAL COMASCLUB NATACIO SITGESABF01:16:4631900:21:4340400:42:5727.9401:04:4032900:12:060:00:000:00:00
39 5059ROSER PLADEVALL IZARDC.N. SABADELLABF01:17:1140900:23:5234200:40:1629.8001:04:0839800:13:030:00:000:00:00
40 5187MARTA COLODRÓN BELÍOC.E. SISTRELLSV1F01:17:2335900:22:3038700:42:0528.5101:04:3538000:12:480:00:000:00:00
41 6099LORENA CARREÑO NAVARROADDICT BIKES TEAM C.E.ABF01:17:4235700:22:2941400:43:2427.6501:05:5330900:11:490:00:000:00:00
42 6123SILVIA TOSCAS FRADECLUB NATACIO SITGESSUB23F01:18:2337100:22:5340300:42:5627.9501:05:4936600:12:340:00:000:00:00
43 1812CAROLINA AYZA DONATOCLUB TRIATLO GRANOLLERSABF01:18:2737900:23:0140500:43:0427.8601:06:0535100:12:220:00:000:00:00
44 1943ALBA GRACIA PAÑELLATG TRIATLO SITGESABF01:18:3943600:24:5435700:40:4229.4801:05:3639900:13:030:00:000:00:00
45 5192ANDREA MEDRANO VICENTEC. BCN TRIATHLON TOTAL3ABF01:18:4341800:24:1738000:41:4728.7201:06:0437100:12:390:00:000:00:00
46 3541MERCEDES SANCHEZ-CORTES MCLUB TRIATLO GRANOLLERSABF01:18:4439500:23:2739100:42:2728.2701:05:5438100:12:500:00:000:00:00
47 6003MARI CARMEN GÓMEZ REALGAVA TRIATLOABF01:18:4531200:21:3942400:44:3026.9701:06:0936700:12:360:00:000:00:00
48 7039MARIA TENA PEÑAMAYENCOS BRICO-JACA TRIATABF01:18:5738800:23:1341200:43:1827.7101:06:3135500:12:260:00:000:00:00
49 3538NELA LOZANO TARRIÑOFASTTRIATLON - C.N. MONTJV1F01:19:0037600:23:0041800:43:4527.4301:06:4534200:12:150:00:000:00:00
50 8022NURIA CAPELLAS PILLICENCIA DE DIAV2F01:19:0636100:22:3242100:44:1527.1201:06:4734700:12:190:00:000:00:00
51 1866ANTONIA CANO ALARCÓNC.E. RAYOTEAMV1F01:19:0936500:22:3942000:44:0627.2101:06:4535300:12:240:00:000:00:00
52 4068CRISTINA LOBACO VALLSCAMBRILS CLUB TRIATLOABF01:19:1442500:24:2837500:41:2828.9401:05:5641100:13:180:00:000:00:00
53 6056MÒNICA MOLINA MORANTECAMBRILS CLUB TRIATLOABF01:19:1441000:23:5239200:42:2828.2601:06:2039000:12:540:00:000:00:00
54 114LIDIA URBAN MURILLOC.E. RAYOTEAMV1F01:19:3240700:23:5139800:42:4928.0301:06:4038700:12:520:00:000:00:00
55 1882JENNIFER RAMIREZ MOLINOCLUB NATACIO SITGESABF01:19:5043100:24:4637300:41:2728.9501:06:1343100:13:370:00:000:00:00
56 1941CRISTINA MARTINEZ RUBIOC.N. VIC-ETBABF01:19:5841400:23:5939700:42:4728.0501:06:4640600:13:120:00:000:00:00
57 3593MARA MONTOYA NAVARROVILADECANS TRIATLOV1F01:20:0537700:23:0042700:44:4426.8301:07:4435000:12:210:00:000:00:00
58 6039SANDRA PEZONAGA MALAGRAVATG TRIATLO SITGESV1F01:20:1343500:24:5438800:42:1728.3801:07:1139700:13:020:00:000:00:00
59 5163MARTINA ROTHE OBREGONCLUB NATACIO VALLDOREIXV2F01:20:4042800:24:4340100:42:5128.0001:07:3440000:13:060:00:000:00:00
60 6062MIRIAM CATALÁN GILC.E. RAYOTEAMABF01:20:4341300:23:5840700:43:1127.7901:07:0942300:13:340:00:000:00:00
61 1851MARTA SANCHEZ SALINASCLUB TRIATLO L´EIX DE NAVV1F01:20:5038700:23:1342300:44:2727.0001:07:4040500:13:100:00:000:00:00
62 6108CRISTINA ALDEHUELA CORRALCLUB NATACIO SITGESSUB23F01:21:0441900:24:1840200:42:5227.9901:07:1043600:13:540:00:000:00:00
63 5095CLAUDIA SOGAS LOPEZGAVA TRIATLOJNF01:21:4045600:26:1035800:40:4329.4701:06:5345600:14:470:00:000:00:00
64 5101ANNA MACIÀ SOLERTG TRIATLO SITGESCDF01:21:4044900:25:4037000:41:1429.1001:06:5445500:14:460:00:000:00:00
65 1966INES ENSEÑAT BESOFASTTRIATLON - C.N. MONTJV2F01:22:1745700:26:1137700:41:4028.8001:07:5144800:14:260:00:000:00:00
66 8027SERENA SERRA MASÓLLICENCIA DE DIAABF01:22:1845000:25:4640000:42:5128.0001:08:3743300:13:410:00:000:00:00
67 1973BELINDA GÓMEZ IBÀÑEZCERRR IGUALADAV1F01:23:3835600:22:2846400:48:5324.5501:11:2134500:12:170:00:000:00:00
68 6030CRISTINA GARCIA ARANCAMBRILS CLUB TRIATLOABF01:23:5445500:26:0541600:43:3727.5101:09:4244500:14:120:00:000:00:00
69 5041ALBA SANCHEZ NAVASCLUB TRIATLO SABADELLABF01:23:5842200:24:2244300:46:4825.6401:11:1037900:12:480:00:000:00:00
70 6107SANDRA MOSQUERA PAZMIÑOCLUB TRITRAININGV1F01:24:0743300:24:4743700:45:4626.2201:10:3342400:13:340:00:000:00:00
71 5132MARÍA DEL SEÑOR VILLAR GICLUB TRITRAININGV2F01:24:3442700:24:3444800:47:0725.4701:11:4138800:12:530:00:000:00:00
72 6036OLGA FERNANDEZ ORTEGACLUB TRIATLO SABADELLABF01:24:5241100:23:5345900:48:0824.9301:12:0138300:12:510:00:000:00:00
73 5126MYRNA ROMERO VILLÁNCLUB ESPORTIU DUETTRIABF01:25:1543400:24:4844900:47:0925.4501:11:5741300:13:180:00:000:00:00
74 8024HELENA DE FELIPELLICENCIA DE DIAV1F01:25:1744300:25:0844700:46:5725.5601:12:0540700:13:120:00:000:00:00
75 6116ESTER MATEOS PEDREÑOVILADECANS TRIATLOV1F01:25:2542100:24:2245600:47:2825.2801:11:5042700:13:350:00:000:00:00
76 1802ESTER GONZALEZ MELEROVILADECANS TRIATLOV1F01:26:3542900:24:4446200:48:3324.7201:13:1740900:13:180:00:000:00:00
77 6091MARIA JESUS SERRANO RODRITG TRIATLO SITGESV1F01:26:3946100:26:3843200:45:1226.5501:11:5045700:14:490:00:000:00:00
78 5186CRISTINA SÁNCHEZ FERNÁNDEC.E. SISTRELLSABF01:26:4844400:25:0942600:44:3126.9601:09:4046900:17:080:00:000:00:00
79 6092MEERITXELL NOGUERA OTEROTG TRIATLO SITGESABF01:26:5344200:25:0346100:48:2024.8301:13:2342100:13:300:00:000:00:00
80 6040MARTA MARIN BLANCOTG TRIATLO SITGESABF01:27:0946800:27:2143000:45:0726.6001:12:2845200:14:410:00:000:00:00
81 25ALBA MARTINEZ DE LA CRUZC.N. BADALONAABF01:27:3542300:24:2246500:49:3824.1801:14:0042600:13:350:00:000:00:00
82 28ROSA MARIA GIBERGA CONDECERRR IGUALADAV1F01:28:0046700:27:1844200:46:3425.7701:13:5244300:14:080:00:000:00:00
83 6126NATALIA LARA ADAMSC.E. RAYOTEAMABF01:28:0545100:25:4646000:48:0924.9201:13:5544400:14:100:00:000:00:00
84 7040LOURDES FERNÁNDEZ MUÑOZLLICENCIA DE DIAV1F01:28:4445900:26:2645400:47:1825.3701:13:4446100:15:000:00:000:00:00
85 5074ARACELI DE LA VEGA DOMINGCLUB NATACIO SITGESV1F01:29:0646900:27:2144400:46:5125.6101:14:1245800:14:540:00:000:00:00
86 6211BEATRIZ ROSÓN HERNANDEZTG TRIATLO SITGESV2F01:31:0747100:29:2843500:45:2626.4101:14:5446800:16:130:00:000:00:00
87 3535CARLA DE SÁRRAGA PUGÉSC.E. RAYOTEAMSUB23F01:31:3246300:26:4646600:49:4624.1101:16:3246000:15:000:00:000:00:00
88 20MONTSERRAT CLAVERO SANCHEC.N. REUS PLOMSV3F01:32:0847200:29:2945200:47:1425.4101:16:4346500:15:250:00:000:00:00
89 3583MARIA DOLORS LOPEZ GOMEZCLUB NATACIO VALLDOREIXV2F01:33:1146400:27:0046700:50:1523.8801:17:1546700:15:560:00:000:00:00






FEDERACIÓ CATALANA DE TRIATLÓ
SEU CENTRAL I CORRESPONDÈNCIA: Rambla Guipúscoa 23-25 2on-D · 08018 Barcelona · Tel / Fax : 93 307 93 35
ATENCIÓ AL PÚBLIC: Passeig Joan de Borbó, 93 (Club Natació Barcelona) · 08039 Barcelona · Tel / Fax : 93 307 93 32